Time;durP1;ratioP1;P1;durP2;ratioP2;P2;SDS_P1;SDS_P2;PMS_P1;PMS_P2;Temp;Humidity;BMP_temperature;BMP_pressure;BME280_temperature;BME280_humidity;BME280_pressure;Samples;Min_cycle;Max_cycle;Signal;HPM_P1;HPM_P2
2021/10/22 00:02:12;;;;;;;1.60;1.00;;;;;;;9.99;58.50;98236.56;112605;1192;62557;-81
2021/10/22 00:04:39;;;;;;;2.30;1.00;;;;;;;10.01;58.39;98234.11;112583;1193;61026;-81
2021/10/22 00:07:05;;;;;;;3.30;1.30;;;;;;;10.05;58.27;98239.46;112559;1192;65617;-82
2021/10/22 00:09:32;;;;;;;2.80;1.10;;;;;;;10.11;58.30;98244.58;112604;1192;61052;-81
2021/10/22 00:11:59;;;;;;;4.00;0.70;;;;;;;10.15;58.30;98243.56;112573;1177;60966;-81
2021/10/22 00:14:25;;;;;;;2.70;1.20;;;;;;;10.15;58.38;98242.65;112547;1193;60978;-81
2021/10/22 00:16:52;;;;;;;3.40;1.20;;;;;;;10.15;58.34;98242.08;112588;1192;61044;-78
2021/10/22 00:19:19;;;;;;;3.30;0.90;;;;;;;10.18;58.31;98240.98;112514;1191;66868;-81
2021/10/22 00:21:46;;;;;;;2.90;1.20;;;;;;;10.20;58.29;98234.63;112577;1192;60968;-80
2021/10/22 00:24:12;;;;;;;1.20;0.60;;;;;;;10.21;58.33;98237.23;112522;1193;64035;-79
2021/10/22 00:26:39;;;;;;;1.60;0.80;;;;;;;10.21;58.38;98238.10;112501;1193;60972;-80
2021/10/22 00:29:05;;;;;;;1.90;0.90;;;;;;;10.21;58.43;98239.13;112520;1193;61035;-79
2021/10/22 00:31:32;;;;;;;3.50;1.40;;;;;;;10.22;58.50;98242.42;112533;1193;64681;-79
2021/10/22 00:33:59;;;;;;;5.30;1.50;;;;;;;10.22;58.47;98240.66;112335;1192;61507;-79
2021/10/22 00:36:26;;;;;;;2.20;1.00;;;;;;;10.22;58.49;98239.59;112414;1193;64018;-79
2021/10/22 00:38:52;;;;;;;2.70;1.60;;;;;;;10.22;58.51;98232.84;112375;1193;61068;-80
2021/10/22 00:41:19;;;;;;;1.90;1.00;;;;;;;10.23;58.60;98235.80;112546;1192;61022;-79
2021/10/22 00:43:46;;;;;;;4.00;1.50;;;;;;;10.22;58.54;98241.92;112550;1193;66529;-80
2021/10/22 00:46:13;;;;;;;1.70;0.90;;;;;;;10.21;58.67;98241.26;112580;1192;61129;-79
2021/10/22 00:48:41;;;;;;;1.90;0.90;;;;;;;10.21;58.75;98243.45;112347;1193;63639;-79
2021/10/22 00:51:11;;;;;;;4.10;1.20;;;;;;;10.20;58.65;98246.70;112510;1192;61065;-80
2021/10/22 00:53:39;;;;;;;3.80;1.10;;;;;;;10.20;58.84;98243.73;112599;1192;61055;-80
2021/10/22 00:56:11;;;;;;;3.60;1.20;;;;;;;10.18;58.93;98240.86;112654;1193;66077;-80
2021/10/22 00:58:39;;;;;;;5.90;1.10;;;;;;;10.15;59.02;98238.24;112618;1192;61048;-80
2021/10/22 01:01:06;;;;;;;5.10;1.20;;;;;;;10.11;59.07;98236.04;112446;1192;62684;-80
2021/10/22 01:03:33;;;;;;;2.80;1.10;;;;;;;10.07;59.23;98242.55;112539;1192;60982;-80
2021/10/22 01:06:01;;;;;;;3.60;1.10;;;;;;;10.06;59.44;98245.66;112579;1193;61036;-80
2021/10/22 01:08:30;;;;;;;2.80;1.30;;;;;;;10.07;59.52;98248.59;112460;1192;66007;-81
2021/10/22 01:10:58;;;;;;;4.50;1.40;;;;;;;10.09;59.60;98249.48;112555;1192;61055;-81
2021/10/22 01:13:25;;;;;;;2.70;1.20;;;;;;;10.12;59.60;98246.25;112629;1192;62486;-79
2021/10/22 01:15:51;;;;;;;5.70;1.50;;;;;;;10.16;59.71;98247.21;112574;1193;61007;-79
2021/10/22 01:18:18;;;;;;;3.30;1.00;;;;;;;10.19;59.77;98251.77;112493;1192;61055;-81
2021/10/22 01:20:45;;;;;;;3.20;1.40;;;;;;;10.18;59.79;98253.55;112581;1192;65670;-80
2021/10/22 01:23:11;;;;;;;3.60;1.50;;;;;;;10.18;59.91;98253.20;112312;1193;61084;-79
2021/10/22 01:25:38;;;;;;;3.60;1.30;;;;;;;10.17;59.99;98257.39;112621;1192;64897;-80
2021/10/22 01:28:06;;;;;;;2.10;0.90;;;;;;;10.16;60.05;98260.29;112543;1192;61025;-79
2021/10/22 01:30:33;;;;;;;4.70;1.20;;;;;;;10.16;60.32;98260.14;112655;1192;60995;-79
2021/10/22 01:33:07;;;;;;;2.50;1.10;;;;;;;10.17;60.40;98267.02;112656;1184;65680;-79
2021/10/22 01:35:34;;;;;;;6.00;1.10;;;;;;;10.19;60.47;98271.77;112674;1193;60966;-79
2021/10/22 01:38:04;;;;;;;2.80;0.90;;;;;;;10.23;60.48;98272.58;112640;1193;64026;-80
2021/10/22 01:40:31;;;;;;;2.10;1.20;;;;;;;10.26;60.55;98270.20;112463;1183;61052;-79
2021/10/22 01:42:57;;;;;;;1.80;0.80;;;;;;;10.28;60.60;98267.35;112611;1192;61057;-80
2021/10/22 01:45:24;;;;;;;3.10;0.90;;;;;;;10.29;60.57;98269.09;112593;1192;64870;-79
2021/10/22 01:47:50;;;;;;;4.50;1.00;;;;;;;10.28;60.65;98275.72;112586;1192;60901;-80
2021/10/22 01:50:17;;;;;;;1.50;0.80;;;;;;;10.28;60.72;98275.04;112547;1193;62743;-80
2021/10/22 01:52:46;;;;;;;2.90;0.90;;;;;;;10.28;60.87;98268.65;112548;1191;60993;-80
2021/10/22 01:55:13;;;;;;;2.10;0.70;;;;;;;10.29;60.95;98276.04;112551;1192;61029;-80
2021/10/22 01:57:39;;;;;;;4.10;1.20;;;;;;;10.28;61.02;98279.64;112572;1192;66955;-80
2021/10/22 02:00:31;;;;;;;2.60;1.10;;;;;;;10.25;61.05;98289.06;112554;1183;61416;-79
2021/10/22 02:02:57;;;;;;;3.40;1.10;;;;;;;10.24;61.32;98293.28;112522;1193;62964;-80
2021/10/22 02:05:25;;;;;;;2.70;1.00;;;;;;;10.27;61.45;98293.75;112527;1193;61032;-80
2021/10/22 02:07:52;;;;;;;3.00;1.10;;;;;;;10.31;61.44;98291.98;112549;1193;60969;-81
2021/10/22 02:10:19;;;;;;;2.40;1.00;;;;;;;10.35;61.41;98288.03;112486;1192;61063;-81
2021/10/22 02:12:45;;;;;;;2.10;0.80;;;;;;;10.35;61.53;98291.56;112611;1192;68915;-82
2021/10/22 02:15:12;;;;;;;3.20;1.10;;;;;;;10.37;61.55;98292.30;112566;1193;61036;-81
2021/10/22 02:17:38;;;;;;;5.00;1.60;;;;;;;10.38;61.47;98292.25;112531;1192;61058;-81
2021/10/22 02:20:06;;;;;;;3.40;0.90;;;;;;;10.38;61.61;98292.98;112454;1193;60978;-80
2021/10/22 02:22:33;;;;;;;2.70;1.30;;;;;;;10.38;61.64;98298.98;112654;1192;65778;-82
2021/10/22 02:25:00;;;;;;;6.00;1.20;;;;;;;10.39;61.75;98304.70;112427;1192;61046;-81
2021/10/22 02:27:28;;;;;;;3.30;1.50;;;;;;;10.44;61.72;98312.84;112594;1193;60988;-82
2021/10/22 02:29:54;;;;;;;3.40;1.30;;;;;;;10.50;61.75;98322.17;112635;1193;61123;-81
2021/10/22 02:32:21;;;;;;;2.30;0.80;;;;;;;10.56;61.68;98323.48;112612;1192;61001;-81
2021/10/22 02:34:47;;;;;;;3.30;1.40;;;;;;;10.60;61.67;98316.77;112404;1192;65938;-81
2021/10/22 02:37:14;;;;;;;3.20;1.10;;;;;;;10.59;61.78;98320.92;112611;1193;61062;-81
2021/10/22 02:39:41;;;;;;;4.00;1.20;;;;;;;10.58;61.78;98319.81;112646;1193;64711;-79
2021/10/22 02:42:07;;;;;;;3.10;1.60;;;;;;;10.55;61.91;98325.36;112378;1192;61249;-81
2021/10/22 02:44:34;;;;;;;3.60;1.50;;;;;;;10.52;61.96;98329.83;112481;1192;61047;-80
2021/10/22 02:47:01;;;;;;;2.90;1.30;;;;;;;10.50;62.07;98339.39;112642;1192;65842;-80
2021/10/22 02:49:28;;;;;;;3.50;1.10;;;;;;;10.51;62.17;98348.21;112605;1192;61433;-79
2021/10/22 02:51:56;;;;;;;2.10;1.00;;;;;;;10.50;62.07;98352.92;112435;1192;64676;-79
2021/10/22 02:54:22;;;;;;;2.40;1.40;;;;;;;10.48;62.26;98358.38;112587;1193;61058;-80
2021/10/22 02:56:49;;;;;;;5.20;2.30;;;;;;;10.46;62.26;98360.83;112642;1193;61004;-80
2021/10/22 02:59:16;;;;;;;2.20;1.30;;;;;;;10.46;62.25;98361.69;112506;1193;61006;-79
2021/10/22 03:01:42;;;;;;;3.50;1.70;;;;;;;10.48;62.21;98366.52;112593;1192;60965;-80
2021/10/22 03:04:10;;;;;;;2.80;1.50;;;;;;;10.49;62.26;98371.58;112615;1192;63841;-80
2021/10/22 03:06:37;;;;;;;5.10;2.30;;;;;;;10.49;62.12;98373.40;112618;1192;61474;-80
2021/10/22 03:09:03;;;;;;;3.70;1.40;;;;;;;10.50;61.99;98378.48;112590;1192;61738;-80
2021/10/22 03:11:30;;;;;;;2.90;1.30;;;;;;;10.50;62.07;98387.36;112540;1193;60950;-81
2021/10/22 03:13:57;;;;;;;2.70;1.90;;;;;;;10.48;62.00;98395.46;112607;1192;61017;-80
2021/10/22 03:16:23;;;;;;;2.80;1.50;;;;;;;10.48;62.13;98403.48;112606;1192;63689;-80
2021/10/22 03:18:50;;;;;;;4.20;1.60;;;;;;;10.46;62.21;98408.08;112592;1192;60992;-81
2021/10/22 03:21:18;;;;;;;5.30;2.00;;;;;;;10.42;62.32;98414.04;112600;1192;61020;-80
2021/10/22 03:23:45;;;;;;;7.30;2.00;;;;;;;10.40;62.40;98419.05;112600;1193;67042;-79
2021/10/22 03:26:12;;;;;;;4.80;2.30;;;;;;;10.35;62.48;98423.85;112564;1192;60991;-81
2021/10/22 03:28:38;;;;;;;3.70;2.20;;;;;;;10.31;62.59;98429.11;112604;1192;65046;-81
2021/10/22 03:31:05;;;;;;;5.50;2.00;;;;;;;10.26;62.66;98431.93;112612;1184;61135;-81
2021/10/22 03:33:31;;;;;;;6.20;1.40;;;;;;;10.20;62.80;98438.90;112428;1192;61040;-82
2021/10/22 03:35:58;;;;;;;5.10;2.00;;;;;;;10.15;62.87;98434.89;112539;1192;66976;-80
2021/10/22 03:38:24;;;;;;;4.50;2.00;;;;;;;10.08;62.95;98435.73;112606;1192;60959;-80
2021/10/22 03:40:51;;;;;;;5.10;2.30;;;;;;;10.00;63.08;98438.32;112562;1192;64034;-79
2021/10/22 03:43:18;;;;;;;4.80;2.00;;;;;;;9.91;63.32;98445.14;112600;1193;61449;-81
2021/10/22 03:45:44;;;;;;;3.90;1.80;;;;;;;9.81;63.44;98443.22;112570;1193;61039;-79
2021/10/22 03:48:11;;;;;;;3.40;2.00;;;;;;;9.70;63.50;98448.63;112612;1192;61017;-80
2021/10/22 03:50:37;;;;;;;2.90;1.70;;;;;;;9.61;63.84;98455.68;112560;1192;61030;-80
2021/10/22 03:53:04;;;;;;;6.80;2.60;;;;;;;9.53;64.08;98462.80;112385;1192;61110;-79
2021/10/22 03:55:30;;;;;;;5.40;3.40;;;;;;;9.45;64.20;98465.66;112638;1193;61023;-79
2021/10/22 03:57:57;;;;;;;4.50;3.10;;;;;;;9.38;64.43;98467.40;112448;1192;61073;-80
2021/10/22 04:00:23;;;;;;;7.50;2.80;;;;;;;9.31;64.66;98471.09;112620;1192;60957;-80
2021/10/22 04:02:50;;;;;;;5.00;2.80;;;;;;;9.22;64.83;98470.65;112651;1192;61001;-80
2021/10/22 04:05:16;;;;;;;6.30;2.60;;;;;;;9.13;65.15;98470.56;112443;1192;64848;-83
2021/10/22 04:07:43;;;;;;;6.50;3.20;;;;;;;9.03;65.43;98466.66;112549;1192;61068;-80
2021/10/22 04:10:10;;;;;;;8.40;2.70;;;;;;;8.93;65.66;98464.65;112400;1192;61117;-82
2021/10/22 04:12:36;;;;;;;4.70;2.30;;;;;;;8.86;65.88;98464.10;112559;1192;65681;-81
2021/10/22 04:15:03;;;;;;;4.60;2.30;;;;;;;8.80;66.21;98464.88;112554;1192;61055;-81
2021/10/22 04:17:30;;;;;;;5.70;2.60;;;;;;;8.74;66.44;98466.52;112612;1193;63852;-81
2021/10/22 04:19:57;;;;;;;4.50;2.00;;;;;;;8.68;66.66;98464.08;112538;1192;61078;-80
2021/10/22 04:22:24;;;;;;;3.50;1.70;;;;;;;8.62;66.88;98465.73;112604;1192;61006;-81
2021/10/22 04:24:50;;;;;;;3.60;2.30;;;;;;;8.57;67.14;98471.05;112420;1193;65655;-80
2021/10/22 04:27:17;;;;;;;5.60;2.70;;;;;;;8.52;67.34;98472.09;112558;1193;61036;-80
2021/10/22 04:29:44;;;;;;;5.40;3.10;;;;;;;8.46;67.58;98474.08;112401;1183;64956;-80
2021/10/22 04:32:11;;;;;;;5.50;2.80;;;;;;;8.39;67.65;98477.52;112626;1193;61062;-80
2021/10/22 04:34:37;;;;;;;4.00;2.50;;;;;;;8.33;67.82;98482.86;112618;1192;61042;-80
2021/10/22 04:38:02;;;;;;;5.30;2.90;;;;;;;8.27;67.94;98485.20;112577;1193;66329;-80
2021/10/22 04:42:49;;;;;;;4.10;2.20;;;;;;;8.19;68.44;98481.48;112606;1193;63668;-80
2021/10/22 04:45:18;;;;;;;5.60;2.70;;;;;;;8.17;68.65;98484.48;112492;1192;61181;-80
2021/10/22 04:47:45;;;;;;;5.70;2.10;;;;;;;8.13;68.73;98489.30;112575;1192;61788;-79
2021/10/22 04:50:12;;;;;;;6.10;2.90;;;;;;;8.08;68.88;98498.84;112488;1192;66087;-81
2021/10/22 04:52:39;;;;;;;6.20;2.70;;;;;;;8.03;69.05;98499.69;112617;1191;61042;-81
2021/10/22 04:55:07;;;;;;;6.00;3.20;;;;;;;7.97;69.07;98504.14;112578;1193;63675;-82
2021/10/22 04:57:34;;;;;;;8.00;4.10;;;;;;;7.91;69.26;98503.64;112557;1191;61036;-84
2021/10/22 05:00:03;;;;;;;5.90;3.90;;;;;;;7.85;69.46;98506.10;112602;1191;61058;-83
2021/10/22 05:02:30;;;;;;;5.90;3.80;;;;;;;7.79;69.63;98510.06;112588;1192;65756;-82
2021/10/22 05:04:57;;;;;;;6.00;3.30;;;;;;;7.73;69.76;98512.59;112580;1193;68679;-81
2021/10/22 05:07:23;;;;;;;5.50;3.80;;;;;;;7.68;69.93;98517.65;112391;1192;64760;-83
2021/10/22 05:09:50;;;;;;;8.70;4.10;;;;;;;7.65;70.04;98517.30;112541;1193;61062;-81
2021/10/22 05:12:16;;;;;;;6.00;3.50;;;;;;;7.65;70.18;98517.13;112583;1191;61043;-80
2021/10/22 05:14:43;;;;;;;7.10;3.70;;;;;;;7.63;70.14;98524.63;112524;1191;61095;-82
2021/10/22 05:17:10;;;;;;;5.90;3.40;;;;;;;7.61;70.20;98533.42;112653;1192;60972;-82
2021/10/22 05:19:36;;;;;;;6.10;3.20;;;;;;;7.59;70.35;98541.51;112626;1193;63945;-80
2021/10/22 05:22:03;;;;;;;5.30;3.10;;;;;;;7.57;70.44;98542.88;112387;1191;60982;-81
2021/10/22 05:24:29;;;;;;;4.20;2.60;;;;;;;7.57;70.44;98548.74;112574;1193;60901;-80
2021/10/22 05:26:56;;;;;;;7.00;3.60;;;;;;;7.58;70.55;98555.91;112472;1192;60940;-80
2021/10/22 05:29:22;;;;;;;6.20;3.20;;;;;;;7.61;70.55;98558.89;112504;1192;61058;-81
2021/10/22 05:31:49;;;;;;;7.40;3.70;;;;;;;7.65;70.54;98565.21;112503;1191;61056;-81
2021/10/22 05:34:16;;;;;;;9.00;4.00;;;;;;;7.67;70.53;98566.29;112299;1193;61138;-82
2021/10/22 05:36:42;;;;;;;5.60;2.80;;;;;;;7.70;70.60;98569.88;112612;1193;61062;-78
2021/10/22 05:39:09;;;;;;;6.40;2.70;;;;;;;7.70;70.65;98569.46;112339;1193;61001;-81
2021/10/22 05:41:35;;;;;;;4.80;2.40;;;;;;;7.71;70.69;98568.19;112534;1192;60937;-79
2021/10/22 05:44:02;;;;;;;6.60;3.30;;;;;;;7.70;70.95;98571.63;112579;1193;60972;-80
2021/10/22 05:46:29;;;;;;;4.00;2.60;;;;;;;7.69;70.92;98575.75;112571;1191;61036;-82
2021/10/22 05:48:55;;;;;;;6.50;3.30;;;;;;;7.69;70.72;98579.27;112578;1192;61058;-82
2021/10/22 05:51:22;;;;;;;9.50;5.30;;;;;;;7.68;70.69;98582.70;112571;1193;61097;-80
2021/10/22 05:53:49;;;;;;;9.40;5.00;;;;;;;7.68;70.66;98594.38;112559;1192;69299;-80
2021/10/22 05:56:15;;;;;;;7.60;4.40;;;;;;;7.68;70.68;98600.55;112606;1191;65043;-79
2021/10/22 05:58:41;;;;;;;11.70;3.20;;;;;;;7.70;70.70;98604.49;112580;1192;61033;-80
2021/10/22 06:01:08;;;;;;;8.30;4.00;;;;;;;7.72;70.62;98610.23;112381;1193;61010;-80
2021/10/22 06:03:36;;;;;;;10.60;4.20;;;;;;;7.77;70.55;98619.48;112624;1192;65961;-80
2021/10/22 06:06:03;;;;;;;9.20;4.40;;;;;;;7.80;70.52;98622.11;112568;1193;61036;-80
2021/10/22 06:08:30;;;;;;;7.10;3.80;;;;;;;7.81;70.48;98631.39;112446;1193;63819;-80
2021/10/22 06:10:57;;;;;;;6.20;3.80;;;;;;;7.82;70.56;98630.98;112599;1193;61041;-79
2021/10/22 06:13:23;;;;;;;7.60;3.00;;;;;;;7.85;70.50;98632.25;112276;1192;61125;-81
2021/10/22 06:15:50;;;;;;;8.10;3.90;;;;;;;7.87;70.57;98632.66;112580;1193;67116;-81
2021/10/22 06:18:19;;;;;;;4.90;2.20;;;;;;;7.90;70.50;98635.47;112605;1191;61128;-81
2021/10/22 06:20:52;;;;;;;4.30;2.10;;;;;;;7.95;70.45;98637.81;112586;1192;62485;-82
2021/10/22 06:26:04;;;;;;;6.30;2.70;;;;;;;8.06;70.25;98639.64;112589;1192;61116;-80
2021/10/22 06:28:31;;;;;;;4.70;2.10;;;;;;;8.11;70.23;98640.73;112565;1193;64483;-80
2021/10/22 06:30:58;;;;;;;5.30;2.10;;;;;;;8.15;70.07;98642.38;112320;1193;61055;-80
2021/10/22 06:33:24;;;;;;;4.40;1.90;;;;;;;8.19;70.02;98644.46;112398;1192;65138;-80
2021/10/22 06:35:53;;;;;;;6.30;2.40;;;;;;;8.22;70.02;98647.27;112607;1184;60985;-80
2021/10/22 06:38:21;;;;;;;4.40;1.80;;;;;;;8.24;69.90;98641.69;112528;1192;61033;-81
2021/10/22 06:40:53;;;;;;;4.30;1.50;;;;;;;8.27;69.90;98641.45;112556;1192;66003;-80
2021/10/22 06:43:23;;;;;;;2.40;1.30;;;;;;;8.31;69.71;98643.84;112606;1192;60966;-80
2021/10/22 06:45:51;;;;;;;5.40;2.10;;;;;;;8.37;69.57;98644.04;112619;1192;62501;-80
2021/10/22 06:48:17;;;;;;;3.90;1.70;;;;;;;8.42;69.55;98643.72;112587;1192;61040;-81
2021/10/22 06:50:45;;;;;;;2.80;1.20;;;;;;;8.47;69.50;98646.12;112378;1192;60938;-81
2021/10/22 06:53:12;;;;;;;2.80;1.30;;;;;;;8.51;69.28;98649.03;112585;1192;66033;-79
2021/10/22 06:55:39;;;;;;;4.90;1.50;;;;;;;8.54;69.03;98652.14;112504;1191;61049;-79
2021/10/22 06:58:06;;;;;;;2.60;1.30;;;;;;;8.59;68.79;98657.02;112583;1177;62348;-81
2021/10/22 07:00:34;;;;;;;4.10;1.40;;;;;;;8.62;68.67;98659.62;112543;1193;61054;-79
2021/10/22 07:03:00;;;;;;;5.10;1.40;;;;;;;8.67;68.53;98660.55;112594;1192;60961;-80
2021/10/22 07:08:11;;;;;;;3.60;1.00;;;;;;;8.79;68.06;98666.89;112605;1193;61007;-80
2021/10/22 07:10:38;;;;;;;2.80;1.30;;;;;;;8.84;67.78;98664.93;112619;1193;65183;-79
2021/10/22 07:13:05;;;;;;;2.50;1.30;;;;;;;8.91;67.76;98669.13;112589;1191;61106;-81
2021/10/22 07:15:32;;;;;;;4.20;1.40;;;;;;;8.97;67.38;98672.06;112681;1192;60937;-82
2021/10/22 07:18:00;;;;;;;4.60;1.20;;;;;;;9.02;66.64;98668.94;112434;1176;66327;-79
2021/10/22 07:20:27;;;;;;;2.70;1.20;;;;;;;9.05;66.36;98670.84;112575;1184;60955;-80
2021/10/22 07:23:02;;;;;;;4.20;1.00;;;;;;;9.07;65.69;98671.80;112566;1192;63681;-80
2021/10/22 07:25:30;;;;;;;7.20;1.40;;;;;;;9.10;65.93;98677.98;112651;1192;61081;-80
2021/10/22 07:27:57;;;;;;;3.30;1.30;;;;;;;9.14;65.25;98678.38;112593;1192;61030;-80
2021/10/22 07:30:24;;;;;;;4.00;1.40;;;;;;;9.17;64.87;98684.20;112585;1193;66778;-80
2021/10/22 07:32:50;;;;;;;3.50;1.10;;;;;;;9.20;64.69;98679.41;112672;1193;61055;-80
2021/10/22 07:35:17;;;;;;;4.70;2.00;;;;;;;9.24;64.70;98683.08;112528;1178;62659;-80
2021/10/22 07:37:44;;;;;;;7.20;1.40;;;;;;;9.27;64.66;98684.63;112590;1193;61029;-81
2021/10/22 07:40:10;;;;;;;5.60;1.50;;;;;;;9.30;64.63;98682.82;112577;1193;60965;-81
2021/10/22 07:42:37;;;;;;;4.20;1.70;;;;;;;9.36;65.10;98691.84;112584;1191;66952;-81
2021/10/22 07:45:06;;;;;;;3.10;1.30;;;;;;;9.44;65.20;98696.45;112619;1192;60975;-84
2021/10/22 07:47:36;;;;;;;3.80;1.30;;;;;;;9.52;64.94;98696.11;112592;1193;62631;-84
2021/10/22 07:50:06;;;;;;;2.80;1.20;;;;;;;9.56;64.34;98697.91;112701;1192;61035;-83
2021/10/22 07:52:32;;;;;;;4.70;1.50;;;;;;;9.58;63.71;98702.39;112605;1193;61119;-83
2021/10/22 07:54:59;;;;;;;5.00;1.30;;;;;;;9.62;63.69;98700.20;112616;1193;65967;-83
2021/10/22 07:57:27;;;;;;;4.50;1.20;;;;;;;9.65;63.32;98697.45;112627;1193;61008;-83
2021/10/22 07:59:55;;;;;;;5.50;1.60;;;;;;;9.68;62.49;98700.14;112693;1193;63669;-84
2021/10/22 08:02:22;;;;;;;5.30;1.20;;;;;;;9.69;61.70;98701.48;112472;1191;61145;-82
2021/10/22 08:04:51;;;;;;;6.30;1.80;;;;;;;9.71;61.66;98705.77;112622;1192;60904;-83
2021/10/22 08:07:30;;;;;;;6.50;1.50;;;;;;;9.75;61.58;98699.45;112609;1192;65688;-84
2021/10/22 08:09:59;;;;;;;7.30;1.80;;;;;;;9.81;61.21;98701.20;112637;1192;60978;-84
2021/10/22 08:12:26;;;;;;;3.50;1.40;;;;;;;9.85;60.67;98701.80;112629;1193;64981;-83
2021/10/22 08:14:53;;;;;;;6.50;1.50;;;;;;;9.88;60.43;98701.41;112652;1193;61066;-83
2021/10/22 08:17:20;;;;;;;5.70;1.60;;;;;;;9.93;60.37;98703.40;112636;1193;60976;-83
2021/10/22 08:19:57;;;;;;;4.00;1.50;;;;;;;9.97;60.20;98701.67;112640;1192;64466;-82
2021/10/22 08:22:30;;;;;;;6.10;2.10;;;;;;;10.02;59.14;98707.21;112602;1191;60998;-83
2021/10/22 08:25:14;;;;;;;5.30;1.80;;;;;;;10.06;59.19;98711.37;112588;1193;63630;-82
2021/10/22 08:27:44;;;;;;;3.10;1.10;;;;;;;10.11;59.24;98710.69;112570;1193;61048;-82
2021/10/22 08:30:15;;;;;;;5.80;1.40;;;;;;;10.14;58.70;98711.88;112607;1192;61048;-79
2021/10/22 08:32:47;;;;;;;5.00;1.60;;;;;;;10.19;58.06;98718.46;112569;1192;65609;-82
2021/10/22 08:35:13;;;;;;;5.00;1.80;;;;;;;10.24;57.60;98720.08;112623;1192;61052;-83
2021/10/22 08:37:40;;;;;;;7.40;3.10;;;;;;;10.29;57.52;98721.88;112630;1193;61023;-82
2021/10/22 08:40:08;;;;;;;5.70;2.90;;;;;;;10.32;56.79;98725.68;112627;1192;61009;-83
2021/10/22 08:42:36;;;;;;;9.90;4.60;;;;;;;10.37;56.13;98729.16;112659;1192;61109;-82
2021/10/22 08:45:04;;;;;;;12.40;4.90;;;;;;;10.39;55.89;98730.44;112622;1192;65631;-83
2021/10/22 08:47:33;;;;;;;13.20;7.30;;;;;;;10.42;56.30;98729.15;112623;1192;60971;-83
2021/10/22 08:50:01;;;;;;;8.10;3.40;;;;;;;10.48;56.27;98731.71;112597;1194;64814;-82
2021/10/22 08:52:29;;;;;;;7.30;2.50;;;;;;;10.51;55.06;98733.62;112691;1192;61687;-84
2021/10/22 08:55:00;;;;;;;7.10;3.30;;;;;;;10.52;54.38;98732.65;112684;1193;61097;-88
2021/10/22 08:57:27;;;;;;;9.10;3.90;;;;;;;10.54;54.85;98735.92;112790;1192;65694;-82
2021/10/22 08:59:57;;;;;;;6.80;3.30;;;;;;;10.58;54.72;98736.52;112780;1192;61029;-81
2021/10/22 09:02:26;;;;;;;4.30;2.00;;;;;;;10.62;54.76;98737.66;112525;1193;63614;-80
2021/10/22 09:04:59;;;;;;;4.60;1.60;;;;;;;10.67;54.78;98738.34;112610;1192;60969;-80
2021/10/22 09:07:44;;;;;;;3.60;1.50;;;;;;;10.74;54.99;98741.57;112647;1193;61074;-84
2021/10/22 09:10:18;;;;;;;3.00;1.00;;;;;;;10.79;54.86;98743.02;112714;1193;66856;-82
2021/10/22 09:12:57;;;;;;;5.50;1.30;;;;;;;10.84;53.87;98745.83;112681;1193;60834;-82
2021/10/22 09:15:27;;;;;;;3.10;1.20;;;;;;;10.85;53.76;98748.64;112695;1192;62968;-82
2021/10/22 09:17:56;;;;;;;2.70;1.10;;;;;;;10.87;53.87;98743.67;112637;1193;61118;-82
2021/10/22 09:20:25;;;;;;;4.90;1.40;;;;;;;10.90;54.13;98747.89;112702;1192;61026;-81
2021/10/22 09:23:02;;;;;;;2.70;1.40;;;;;;;10.93;54.18;98750.67;112650;1192;65988;-82
2021/10/22 09:25:31;;;;;;;4.40;1.30;;;;;;;10.96;54.21;98750.48;112678;1193;61462;-81
2021/10/22 09:28:03;;;;;;;2.40;1.10;;;;;;;11.01;54.19;98742.52;112686;1193;65008;-81
2021/10/22 09:30:41;;;;;;;2.50;0.80;;;;;;;11.03;53.80;98749.83;112670;1193;61058;-81
2021/10/22 09:33:10;;;;;;;2.90;1.10;;;;;;;11.07;54.09;98752.73;112641;1191;60978;-81
2021/10/22 09:35:52;;;;;;;3.50;1.40;;;;;;;11.13;53.87;98752.42;112686;1191;66015;-83
2021/10/22 09:38:27;;;;;;;4.10;0.90;;;;;;;11.19;54.12;98753.59;112708;1193;60930;-82
2021/10/22 09:40:57;;;;;;;3.80;1.30;;;;;;;11.25;54.27;98754.94;112684;1192;64036;-83
2021/10/22 09:43:32;;;;;;;3.30;1.30;;;;;;;11.28;54.21;98754.88;112640;1192;61063;-83
2021/10/22 09:46:21;;;;;;;4.70;1.90;;;;;;;11.30;53.93;98750.34;112638;1193;61032;-83
2021/10/22 09:48:57;;;;;;;3.50;1.40;;;;;;;11.30;53.95;98745.48;112705;1192;64484;-82
2021/10/22 09:51:26;;;;;;;2.70;1.00;;;;;;;11.39;54.35;98745.40;112657;1194;61058;-81
2021/10/22 09:54:10;;;;;;;4.40;1.40;;;;;;;11.53;54.49;98741.30;112646;1193;63801;-81
2021/10/22 09:56:39;;;;;;;4.80;1.50;;;;;;;11.67;53.92;98740.98;112644;1192;61039;-82
2021/10/22 09:59:08;;;;;;;2.90;1.20;;;;;;;11.77;53.95;98736.86;112705;1193;60902;-82
2021/10/22 10:01:36;;;;;;;4.00;1.20;;;;;;;11.87;53.68;98731.12;112686;1192;66842;-81
2021/10/22 10:04:08;;;;;;;2.90;1.10;;;;;;;11.90;53.27;98726.98;112637;1193;61125;-82
2021/10/22 10:06:39;;;;;;;3.30;1.20;;;;;;;11.92;53.38;98730.02;112665;1192;64859;-83
2021/10/22 10:09:08;;;;;;;3.90;1.30;;;;;;;11.93;52.93;98727.83;112610;1191;61071;-82
2021/10/22 10:11:39;;;;;;;3.40;1.20;;;;;;;11.95;53.08;98720.35;112630;1193;60978;-82
2021/10/22 10:14:07;;;;;;;6.20;1.60;;;;;;;12.07;53.58;98726.73;112699;1192;67004;-81
2021/10/22 10:16:34;;;;;;;4.20;1.00;;;;;;;12.20;53.02;98728.23;112714;1192;61043;-84
2021/10/22 10:19:06;;;;;;;5.00;1.40;;;;;;;12.21;52.25;98719.95;112690;1193;63866;-83
2021/10/22 10:21:42;;;;;;;7.70;1.50;;;;;;;12.20;51.64;98717.35;112627;1191;61699;-82
2021/10/22 10:24:12;;;;;;;4.90;1.30;;;;;;;12.19;50.99;98714.91;112649;1192;60908;-83
2021/10/22 10:26:39;;;;;;;3.30;1.00;;;;;;;12.20;51.57;98708.27;112645;1192;64668;-83
2021/10/22 10:29:08;;;;;;;1.80;0.90;;;;;;;12.25;51.86;98704.52;112759;1193;61026;-83
2021/10/22 10:31:47;;;;;;;4.10;2.60;;;;;;;12.30;51.39;98703.40;112376;1193;65022;-83
2021/10/22 10:34:32;;;;;;;4.40;2.60;;;;;;;12.28;51.96;98696.40;112647;1193;61045;-82
2021/10/22 10:36:59;;;;;;;21.50;11.20;;;;;;;12.32;51.96;98696.13;112691;1192;61043;-80
2021/10/22 10:39:50;;;;;;;6.20;2.60;;;;;;;12.37;52.05;98698.03;112665;1192;65940;-81
2021/10/22 10:42:28;;;;;;;4.00;1.10;;;;;;;12.42;51.77;98694.83;112664;1193;60937;-81
2021/10/22 10:44:59;;;;;;;2.90;1.10;;;;;;;12.42;50.77;98681.95;112735;1192;63963;-81
2021/10/22 10:47:33;;;;;;;4.50;1.60;;;;;;;12.40;50.85;98689.41;112716;1193;61004;-81
2021/10/22 10:50:01;;;;;;;2.70;1.00;;;;;;;12.42;50.99;98684.30;112704;1192;61044;-81
2021/10/22 10:52:39;;;;;;;3.20;1.10;;;;;;;12.43;50.81;98677.84;112502;1193;66027;-81
2021/10/22 10:55:22;;;;;;;3.10;1.20;;;;;;;12.41;51.13;98669.92;112633;1192;61439;-81
2021/10/22 10:57:51;;;;;;;1.80;1.00;;;;;;;12.45;51.06;98668.56;112652;1192;65334;-81
2021/10/22 11:00:21;;;;;;;3.90;1.30;;;;;;;12.45;50.61;98668.34;112665;1192;61122;-82
2021/10/22 11:03:06;;;;;;;4.80;1.50;;;;;;;12.44;50.23;98673.42;112627;1193;60937;-82
2021/10/22 11:05:55;;;;;;;3.70;1.20;;;;;;;12.45;50.70;98669.63;112736;1193;65606;-79
2021/10/22 11:08:31;;;;;;;8.50;1.40;;;;;;;12.55;50.48;98667.91;112655;1193;61132;-83
2021/10/22 11:11:16;;;;;;;4.00;1.40;;;;;;;12.65;50.83;98669.24;112570;1193;65002;-83
2021/10/22 11:13:50;;;;;;;6.00;1.50;;;;;;;12.80;51.06;98658.45;112608;1192;61150;-82
2021/10/22 11:16:24;;;;;;;3.70;1.10;;;;;;;12.87;51.03;98647.83;112667;1193;61026;-81
2021/10/22 11:19:00;;;;;;;3.50;1.00;;;;;;;12.91;50.54;98642.52;112669;1193;65991;-82
2021/10/22 11:21:32;;;;;;;2.20;1.00;;;;;;;12.89;49.62;98635.95;112628;1194;61065;-81
2021/10/22 11:24:02;;;;;;;3.00;0.90;;;;;;;12.84;49.36;98638.45;112633;1194;63606;-83
2021/10/22 11:26:29;;;;;;;4.30;1.10;;;;;;;12.82;49.42;98634.77;112637;1193;61068;-83
2021/10/22 11:28:59;;;;;;;3.00;0.70;;;;;;;12.82;49.38;98630.99;112636;1191;61429;-81
2021/10/22 11:31:44;;;;;;;;;;;;;;;12.86;49.51;98635.43;112674;1193;67203;-82
2021/10/22 11:34:17;;;;;;;3.00;0.90;;;;;;;12.89;49.41;98631.43;112644;1192;60969;-82
2021/10/22 11:37:03;;;;;;;4.20;1.20;;;;;;;13.00;49.63;98623.63;112690;1192;62619;-81
2021/10/22 11:39:34;;;;;;;2.40;0.90;;;;;;;13.11;49.03;98616.62;112644;1193;61158;-83
2021/10/22 11:42:08;;;;;;;3.40;1.20;;;;;;;13.20;48.65;98613.02;112687;1184;61017;-83
2021/10/22 11:44:37;;;;;;;2.30;0.80;;;;;;;13.37;48.91;98613.75;112669;1192;65880;-82
2021/10/22 11:47:04;;;;;;;2.70;0.90;;;;;;;13.56;48.76;98614.30;112639;1192;61023;-81